sensor_id;sensor_type;location;lat;lon;timestamp;pressure;altitude;pressure_sealevel;temperature;humidity
26436;BME280;15351;52.408;16.826;2023-06-14T00:15:57;100972.11;;;17.82;65.12
26436;BME280;15351;52.408;16.826;2023-06-14T00:22:23;100967.33;;;17.78;65.44
26436;BME280;15351;52.408;16.826;2023-06-14T00:25:38;100964.80;;;17.77;65.42
26436;BME280;15351;52.408;16.826;2023-06-14T00:36:32;100975.39;;;17.73;65.65
26436;BME280;15351;52.408;16.826;2023-06-14T00:50:16;100969.98;;;17.59;67.18
26436;BME280;15351;52.408;16.826;2023-06-14T00:57:23;100964.27;;;17.64;66.97
26436;BME280;15351;52.408;16.826;2023-06-14T01:00:57;100970.55;;;17.67;67.19
26436;BME280;15351;52.408;16.826;2023-06-14T01:03:51;100966.00;;;17.67;67.12
26436;BME280;15351;52.408;16.826;2023-06-14T01:11:09;100973.42;;;17.64;67.58
26436;BME280;15351;52.408;16.826;2023-06-14T01:14:51;100980.14;;;17.64;68.26
26436;BME280;15351;52.408;16.826;2023-06-14T01:17:31;100982.95;;;17.58;68.51
26436;BME280;15351;52.408;16.826;2023-06-14T01:20:29;100984.73;;;17.51;68.88
26436;BME280;15351;52.408;16.826;2023-06-14T01:27:51;100971.24;;;17.49;69.82
26436;BME280;15351;52.408;16.826;2023-06-14T01:30:35;100975.73;;;17.46;69.79
26436;BME280;15351;52.408;16.826;2023-06-14T01:33:42;100970.38;;;17.49;69.78
26436;BME280;15351;52.408;16.826;2023-06-14T01:37:18;100965.84;;;17.46;70.01
26436;BME280;15351;52.408;16.826;2023-06-14T01:40:18;100961.06;;;17.51;70.01
26436;BME280;15351;52.408;16.826;2023-06-14T01:43:50;100944.89;;;17.46;69.83
26436;BME280;15351;52.408;16.826;2023-06-14T01:47:39;100945.55;;;17.48;69.97
26436;BME280;15351;52.408;16.826;2023-06-14T01:51:12;100946.51;;;17.54;70.32
26436;BME280;15351;52.408;16.826;2023-06-14T01:53:58;100946.68;;;17.58;70.23
26436;BME280;15351;52.408;16.826;2023-06-14T01:57:25;100943.95;;;17.54;69.95
26436;BME280;15351;52.408;16.826;2023-06-14T02:01:12;100942.04;;;17.51;70.24
26436;BME280;15351;52.408;16.826;2023-06-14T02:04:30;100939.52;;;17.47;70.56
26436;BME280;15351;52.408;16.826;2023-06-14T02:08:13;100937.95;;;17.47;70.13
26436;BME280;15351;52.408;16.826;2023-06-14T02:11:38;100934.54;;;17.55;70.03
26436;BME280;15351;52.408;16.826;2023-06-14T02:19:19;100934.04;;;17.59;70.06
26436;BME280;15351;52.408;16.826;2023-06-14T02:26:06;100941.10;;;17.62;70.59
26436;BME280;15351;52.408;16.826;2023-06-14T02:29:43;100942.78;;;17.64;70.27
26436;BME280;15351;52.408;16.826;2023-06-14T02:32:49;100940.75;;;17.59;69.83
26436;BME280;15351;52.408;16.826;2023-06-14T02:40:09;100941.17;;;17.65;69.97
26436;BME280;15351;52.408;16.826;2023-06-14T02:58:41;100955.21;;;17.59;69.93
26436;BME280;15351;52.408;16.826;2023-06-14T03:01:59;100955.91;;;17.60;69.92
26436;BME280;15351;52.408;16.826;2023-06-14T03:04:54;100954.74;;;17.62;70.04
26436;BME280;15351;52.408;16.826;2023-06-14T03:12:06;100954.36;;;17.57;69.71
26436;BME280;15351;52.408;16.826;2023-06-14T03:15:17;100958.48;;;17.58;70.01
26436;BME280;15351;52.408;16.826;2023-06-14T03:18:19;100945.70;;;17.51;70.08
26436;BME280;15351;52.408;16.826;2023-06-14T03:21:09;100945.48;;;17.47;70.46
26436;BME280;15351;52.408;16.826;2023-06-14T03:24:24;100948.58;;;17.51;70.17
26436;BME280;15351;52.408;16.826;2023-06-14T03:28:03;100946.30;;;17.56;70.54
26436;BME280;15351;52.408;16.826;2023-06-14T03:31:06;100951.55;;;17.57;70.38
26436;BME280;15351;52.408;16.826;2023-06-14T03:34:43;100952.30;;;17.58;70.31
26436;BME280;15351;52.408;16.826;2023-06-14T03:42:42;100957.80;;;17.62;70.42
26436;BME280;15351;52.408;16.826;2023-06-14T03:46:33;100960.08;;;17.55;70.56
26436;BME280;15351;52.408;16.826;2023-06-14T03:49:55;100968.21;;;17.60;70.52
26436;BME280;15351;52.408;16.826;2023-06-14T03:54:02;100970.44;;;17.61;70.63
26436;BME280;15351;52.408;16.826;2023-06-14T03:58:03;100969.44;;;17.63;70.63
26436;BME280;15351;52.408;16.826;2023-06-14T04:04:14;100965.31;;;17.56;70.58
26436;BME280;15351;52.408;16.826;2023-06-14T04:07:21;100970.52;;;17.56;70.41
26436;BME280;15351;52.408;16.826;2023-06-14T04:11:31;100967.83;;;17.51;70.26
26436;BME280;15351;52.408;16.826;2023-06-14T04:26:53;100978.95;;;17.69;70.24
26436;BME280;15351;52.408;16.826;2023-06-14T04:30:46;100978.33;;;17.71;70.20
26436;BME280;15351;52.408;16.826;2023-06-14T04:38:58;100981.81;;;17.70;69.88
26436;BME280;15351;52.408;16.826;2023-06-14T04:46:54;100979.13;;;17.70;69.97
26436;BME280;15351;52.408;16.826;2023-06-14T04:50:33;100982.20;;;17.75;70.04
26436;BME280;15351;52.408;16.826;2023-06-14T04:53:46;100970.09;;;17.72;70.07
26436;BME280;15351;52.408;16.826;2023-06-14T04:57:25;100969.70;;;17.69;69.86
26436;BME280;15351;52.408;16.826;2023-06-14T05:04:09;100993.70;;;17.77;70.07
26436;BME280;15351;52.408;16.826;2023-06-14T05:07:40;101000.58;;;17.81;70.16
26436;BME280;15351;52.408;16.826;2023-06-14T05:10:57;101003.96;;;17.83;69.89
26436;BME280;15351;52.408;16.826;2023-06-14T05:14:09;100999.48;;;17.87;69.64
26436;BME280;15351;52.408;16.826;2023-06-14T05:17:09;100994.20;;;17.91;69.82
26436;BME280;15351;52.408;16.826;2023-06-14T05:20:06;100989.77;;;17.94;69.79
26436;BME280;15351;52.408;16.826;2023-06-14T05:23:11;100991.70;;;17.95;69.25
26436;BME280;15351;52.408;16.826;2023-06-14T05:29:45;100989.45;;;17.92;69.40
26436;BME280;15351;52.408;16.826;2023-06-14T05:32:56;101000.68;;;17.93;69.38
26436;BME280;15351;52.408;16.826;2023-06-14T05:36:22;101004.96;;;17.91;69.35
26436;BME280;15351;52.408;16.826;2023-06-14T05:39:17;101006.65;;;17.92;69.56
26436;BME280;15351;52.408;16.826;2023-06-14T05:42:16;101004.30;;;17.93;69.46
26436;BME280;15351;52.408;16.826;2023-06-14T05:48:21;101011.52;;;17.94;68.99
26436;BME280;15351;52.408;16.826;2023-06-14T05:54:38;101013.64;;;17.88;69.13
26436;BME280;15351;52.408;16.826;2023-06-14T05:57:58;101020.23;;;17.88;69.22
26436;BME280;15351;52.408;16.826;2023-06-14T06:00:51;101021.77;;;17.91;69.38
26436;BME280;15351;52.408;16.826;2023-06-14T06:03:23;101021.16;;;17.91;69.15
26436;BME280;15351;52.408;16.826;2023-06-14T06:06:15;101028.23;;;17.91;69.51
26436;BME280;15351;52.408;16.826;2023-06-14T06:09:05;101027.52;;;17.96;69.71
26436;BME280;15351;52.408;16.826;2023-06-14T06:12:40;101031.71;;;17.99;69.56
26436;BME280;15351;52.408;16.826;2023-06-14T06:15:59;101034.24;;;18.04;69.61
26436;BME280;15351;52.408;16.826;2023-06-14T06:19:28;101035.08;;;18.06;69.68
26436;BME280;15351;52.408;16.826;2023-06-14T06:22:51;101025.48;;;18.06;69.59
26436;BME280;15351;52.408;16.826;2023-06-14T06:29:46;101026.14;;;18.13;69.66
26436;BME280;15351;52.408;16.826;2023-06-14T06:33:01;101036.18;;;18.23;69.60
26436;BME280;15351;52.408;16.826;2023-06-14T06:36:22;101038.83;;;18.25;69.60
26436;BME280;15351;52.408;16.826;2023-06-14T06:39:50;101040.05;;;18.27;69.25
26436;BME280;15351;52.408;16.826;2023-06-14T06:42:51;101049.00;;;18.24;69.22
26436;BME280;15351;52.408;16.826;2023-06-14T06:46:16;101054.34;;;18.26;69.43
26436;BME280;15351;52.408;16.826;2023-06-14T06:49:15;101054.73;;;18.24;69.79
26436;BME280;15351;52.408;16.826;2023-06-14T06:52:05;101051.91;;;18.18;69.48
26436;BME280;15351;52.408;16.826;2023-06-14T06:54:57;101043.50;;;18.14;69.76
26436;BME280;15351;52.408;16.826;2023-06-14T06:58:07;101052.79;;;18.23;69.80
26436;BME280;15351;52.408;16.826;2023-06-14T07:03:59;101054.50;;;18.29;69.93
26436;BME280;15351;52.408;16.826;2023-06-14T07:06:27;101053.92;;;18.28;69.78
26436;BME280;15351;52.408;16.826;2023-06-14T07:13:03;101062.67;;;18.35;69.24
26436;BME280;15351;52.408;16.826;2023-06-14T07:15:54;101066.47;;;18.35;69.14
26436;BME280;15351;52.408;16.826;2023-06-14T07:19:33;101076.63;;;18.34;68.79
26436;BME280;15351;52.408;16.826;2023-06-14T07:25:31;101065.04;;;18.31;68.61
26436;BME280;15351;52.408;16.826;2023-06-14T07:28:24;101079.00;;;18.35;68.41
26436;BME280;15351;52.408;16.826;2023-06-14T07:46:33;101066.98;;;18.49;70.09
26436;BME280;15351;52.408;16.826;2023-06-14T07:49:35;101062.17;;;18.50;69.95
26436;BME280;15351;52.408;16.826;2023-06-14T07:56:42;101075.17;;;18.66;70.27
26436;BME280;15351;52.408;16.826;2023-06-14T08:04:08;101073.75;;;18.81;69.75
26436;BME280;15351;52.408;16.826;2023-06-14T08:07:58;101068.64;;;18.76;69.59
26436;BME280;15351;52.408;16.826;2023-06-14T08:10:52;101064.69;;;18.76;69.88
26436;BME280;15351;52.408;16.826;2023-06-14T08:17:07;101065.92;;;18.87;68.48
26436;BME280;15351;52.408;16.826;2023-06-14T08:20:52;101065.20;;;18.82;68.56
26436;BME280;15351;52.408;16.826;2023-06-14T08:24:06;101065.16;;;18.89;68.67
26436;BME280;15351;52.408;16.826;2023-06-14T08:27:31;101052.07;;;18.95;68.84
26436;BME280;15351;52.408;16.826;2023-06-14T08:30:03;101052.48;;;18.97;68.39
26436;BME280;15351;52.408;16.826;2023-06-14T08:33:16;101055.20;;;19.02;68.68
26436;BME280;15351;52.408;16.826;2023-06-14T08:36:07;101060.45;;;19.10;68.60
26436;BME280;15351;52.408;16.826;2023-06-14T08:39:34;101065.11;;;19.16;68.32
26436;BME280;15351;52.408;16.826;2023-06-14T08:53:31;101072.61;;;19.42;67.62
26436;BME280;15351;52.408;16.826;2023-06-14T08:56:18;101074.27;;;19.47;66.81
26436;BME280;15351;52.408;16.826;2023-06-14T08:59:26;101074.11;;;19.51;66.78
26436;BME280;15351;52.408;16.826;2023-06-14T09:03:00;101069.44;;;19.57;67.10
26436;BME280;15351;52.408;16.826;2023-06-14T09:06:00;101066.23;;;19.70;66.95
26436;BME280;15351;52.408;16.826;2023-06-14T09:09:01;101066.38;;;19.83;66.46
26436;BME280;15351;52.408;16.826;2023-06-14T09:12:42;101072.11;;;19.97;65.77
26436;BME280;15351;52.408;16.826;2023-06-14T09:16:08;101060.91;;;20.08;65.54
26436;BME280;15351;52.408;16.826;2023-06-14T09:19:30;101066.16;;;20.29;65.57
26436;BME280;15351;52.408;16.826;2023-06-14T09:22:34;101070.13;;;20.51;64.52
26436;BME280;15351;52.408;16.826;2023-06-14T09:25:45;101064.17;;;20.61;63.27
26436;BME280;15351;52.408;16.826;2023-06-14T09:28:51;101059.73;;;20.80;62.61
26436;BME280;15351;52.408;16.826;2023-06-14T09:32:09;101061.80;;;21.04;62.31
26436;BME280;15351;52.408;16.826;2023-06-14T09:39:03;101050.52;;;21.34;61.23
26436;BME280;15351;52.408;16.826;2023-06-14T09:42:23;101055.39;;;21.45;60.61
26436;BME280;15351;52.408;16.826;2023-06-14T09:45:25;101055.91;;;21.53;60.33
26436;BME280;15351;52.408;16.826;2023-06-14T09:48:23;101054.27;;;21.63;60.58
26436;BME280;15351;52.408;16.826;2023-06-14T09:51:17;101056.50;;;21.79;60.79
26436;BME280;15351;52.408;16.826;2023-06-14T09:57:19;101051.21;;;22.04;60.52
26436;BME280;15351;52.408;16.826;2023-06-14T10:00:23;101046.88;;;22.24;58.81
26436;BME280;15351;52.408;16.826;2023-06-14T10:03:34;101041.88;;;22.28;57.55
26436;BME280;15351;52.408;16.826;2023-06-14T10:06:25;101034.30;;;22.43;57.16
26436;BME280;15351;52.408;16.826;2023-06-14T10:09:33;101030.33;;;22.65;57.92
26436;BME280;15351;52.408;16.826;2023-06-14T10:22:59;101013.93;;;22.84;54.90
26436;BME280;15351;52.408;16.826;2023-06-14T10:25:58;101011.25;;;23.09;55.76
26436;BME280;15351;52.408;16.826;2023-06-14T10:29:09;101009.08;;;23.31;55.34
26436;BME280;15351;52.408;16.826;2023-06-14T10:31:46;101001.85;;;23.58;55.22
26436;BME280;15351;52.408;16.826;2023-06-14T10:38:34;101004.45;;;23.85;53.50
26436;BME280;15351;52.408;16.826;2023-06-14T10:41:58;100995.46;;;23.91;52.94
26436;BME280;15351;52.408;16.826;2023-06-14T10:47:36;100993.38;;;24.02;51.81
26436;BME280;15351;52.408;16.826;2023-06-14T10:53:58;100988.59;;;23.92;50.60
26436;BME280;15351;52.408;16.826;2023-06-14T10:56:49;100988.25;;;23.92;50.74
26436;BME280;15351;52.408;16.826;2023-06-14T11:00:01;100979.92;;;23.86;50.43
26436;BME280;15351;52.408;16.826;2023-06-14T11:07:21;100985.52;;;23.55;49.76
26436;BME280;15351;52.408;16.826;2023-06-14T11:09:51;100988.07;;;23.49;49.90
26436;BME280;15351;52.408;16.826;2023-06-14T11:13:07;100988.64;;;23.43;50.01
26436;BME280;15351;52.408;16.826;2023-06-14T11:16:11;100986.39;;;23.38;50.32
26436;BME280;15351;52.408;16.826;2023-06-14T11:19:22;100980.48;;;23.31;50.27
26436;BME280;15351;52.408;16.826;2023-06-14T11:22:12;100982.19;;;23.27;50.40
26436;BME280;15351;52.408;16.826;2023-06-14T11:25:25;100982.55;;;23.21;50.33
26436;BME280;15351;52.408;16.826;2023-06-14T11:28:18;100982.53;;;23.25;51.01
26436;BME280;15351;52.408;16.826;2023-06-14T11:31:59;100962.09;;;23.22;51.78
26436;BME280;15351;52.408;16.826;2023-06-14T11:34:48;100977.34;;;23.35;51.66
26436;BME280;15351;52.408;16.826;2023-06-14T11:38:24;100974.84;;;23.39;51.01
26436;BME280;15351;52.408;16.826;2023-06-14T11:41:03;100968.44;;;23.39;51.07
26436;BME280;15351;52.408;16.826;2023-06-14T11:47:00;100978.83;;;23.41;49.77
26436;BME280;15351;52.408;16.826;2023-06-14T11:50:23;100973.91;;;23.37;49.15
26436;BME280;15351;52.408;16.826;2023-06-14T11:53:25;100968.20;;;23.46;49.41
26436;BME280;15351;52.408;16.826;2023-06-14T11:56:23;100957.54;;;23.55;48.93
26436;BME280;15351;52.408;16.826;2023-06-14T11:59:22;100949.00;;;23.53;48.80
26436;BME280;15351;52.408;16.826;2023-06-14T12:02:31;100950.21;;;23.52;49.08
26436;BME280;15351;52.408;16.826;2023-06-14T12:05:47;100946.96;;;23.45;48.32
26436;BME280;15351;52.408;16.826;2023-06-14T12:08:47;100946.60;;;23.29;47.77
26436;BME280;15351;52.408;16.826;2023-06-14T12:12:00;100945.52;;;23.18;48.33
26436;BME280;15351;52.408;16.826;2023-06-14T12:18:42;100940.78;;;23.02;48.09
26436;BME280;15351;52.408;16.826;2023-06-14T12:21:51;100940.24;;;22.98;47.83
26436;BME280;15351;52.408;16.826;2023-06-14T12:34:59;100938.90;;;22.92;47.31
26436;BME280;15351;52.408;16.826;2023-06-14T12:38:28;100939.73;;;22.90;47.49
26436;BME280;15351;52.408;16.826;2023-06-14T12:44:27;100937.29;;;22.86;47.32
26436;BME280;15351;52.408;16.826;2023-06-14T12:48:11;100935.29;;;22.85;47.38
26436;BME280;15351;52.408;16.826;2023-06-14T12:51:27;100933.46;;;22.85;47.33
26436;BME280;15351;52.408;16.826;2023-06-14T12:57:38;100931.16;;;22.86;46.87
26436;BME280;15351;52.408;16.826;2023-06-14T13:03:18;100927.33;;;22.87;46.51
26436;BME280;15351;52.408;16.826;2023-06-14T13:09:17;100922.88;;;22.87;46.45
26436;BME280;15351;52.408;16.826;2023-06-14T13:11:55;100918.49;;;22.88;46.38
26436;BME280;15351;52.408;16.826;2023-06-14T13:14:25;100916.58;;;22.88;46.13
26436;BME280;15351;52.408;16.826;2023-06-14T13:23:46;100910.64;;;22.89;46.33
26436;BME280;15351;52.408;16.826;2023-06-14T13:27:12;100905.02;;;22.88;46.36
26436;BME280;15351;52.408;16.826;2023-06-14T13:30:46;100908.73;;;22.89;46.02
26436;BME280;15351;52.408;16.826;2023-06-14T13:34:14;100906.14;;;22.89;45.66
26436;BME280;15351;52.408;16.826;2023-06-14T13:40:55;100904.52;;;22.86;44.60
26436;BME280;15351;52.408;16.826;2023-06-14T13:44:16;100901.02;;;22.84;44.25
26436;BME280;15351;52.408;16.826;2023-06-14T13:47:20;100900.48;;;22.84;44.06
26436;BME280;15351;52.408;16.826;2023-06-14T13:50:15;100895.07;;;22.87;44.34
26436;BME280;15351;52.408;16.826;2023-06-14T13:57:03;100893.91;;;22.94;44.85
26436;BME280;15351;52.408;16.826;2023-06-14T13:59:51;100890.42;;;22.97;44.40
26436;BME280;15351;52.408;16.826;2023-06-14T14:03:12;100889.16;;;23.01;44.36
26436;BME280;15351;52.408;16.826;2023-06-14T14:06:02;100888.55;;;23.11;44.19
26436;BME280;15351;52.408;16.826;2023-06-14T14:09:28;100883.27;;;23.22;43.67
26436;BME280;15351;52.408;16.826;2023-06-14T14:12:52;100882.88;;;23.30;43.88
26436;BME280;15351;52.408;16.826;2023-06-14T14:19:48;100884.17;;;23.38;44.04
26436;BME280;15351;52.408;16.826;2023-06-14T14:30:03;100880.15;;;23.41;44.50
26436;BME280;15351;52.408;16.826;2023-06-14T14:33:34;100876.89;;;23.37;44.07
26436;BME280;15351;52.408;16.826;2023-06-14T14:37:23;100883.61;;;23.33;43.86
26436;BME280;15351;52.408;16.826;2023-06-14T14:44:00;100882.47;;;23.24;44.49
26436;BME280;15351;52.408;16.826;2023-06-14T14:47:41;100890.02;;;23.20;44.67
26436;BME280;15351;52.408;16.826;2023-06-14T14:54:18;100884.55;;;23.13;44.73
26436;BME280;15351;52.408;16.826;2023-06-14T14:57:06;100886.15;;;23.10;44.64
26436;BME280;15351;52.408;16.826;2023-06-14T14:59:56;100884.70;;;23.09;44.64
26436;BME280;15351;52.408;16.826;2023-06-14T15:06:58;100888.30;;;23.05;44.13
26436;BME280;15351;52.408;16.826;2023-06-14T15:10:22;100885.36;;;23.01;44.09
26436;BME280;15351;52.408;16.826;2023-06-14T15:13:21;100885.39;;;22.95;43.88
26436;BME280;15351;52.408;16.826;2023-06-14T15:16:35;100889.12;;;22.95;43.39
26436;BME280;15351;52.408;16.826;2023-06-14T15:39:28;100889.71;;;22.77;43.81
26436;BME280;15351;52.408;16.826;2023-06-14T15:47:17;100891.62;;;22.73;43.63
26436;BME280;15351;52.408;16.826;2023-06-14T15:50:44;100896.75;;;22.71;43.92
26436;BME280;15351;52.408;16.826;2023-06-14T15:54:13;100898.83;;;22.70;44.15
26436;BME280;15351;52.408;16.826;2023-06-14T15:57:15;100894.77;;;22.68;44.14
26436;BME280;15351;52.408;16.826;2023-06-14T16:00:16;100897.71;;;22.68;44.45
26436;BME280;15351;52.408;16.826;2023-06-14T16:03:35;100898.83;;;22.66;44.90
26436;BME280;15351;52.408;16.826;2023-06-14T16:06:56;100892.28;;;22.61;44.64
26436;BME280;15351;52.408;16.826;2023-06-14T16:10:11;100900.95;;;22.62;44.21
26436;BME280;15351;52.408;16.826;2023-06-14T16:20:23;100911.34;;;22.45;43.12
26436;BME280;15351;52.408;16.826;2023-06-14T16:30:24;100923.84;;;22.07;42.78
26436;BME280;15351;52.408;16.826;2023-06-14T16:36:56;100921.99;;;21.86;42.96
26436;BME280;15351;52.408;16.826;2023-06-14T16:39:36;100926.70;;;21.80;43.24
26436;BME280;15351;52.408;16.826;2023-06-14T16:46:13;100928.36;;;21.68;44.07
26436;BME280;15351;52.408;16.826;2023-06-14T16:49:06;100932.09;;;21.65;44.77
26436;BME280;15351;52.408;16.826;2023-06-14T16:52:10;100935.63;;;21.64;45.27
26436;BME280;15351;52.408;16.826;2023-06-14T16:55:40;100938.10;;;21.58;45.67
26436;BME280;15351;52.408;16.826;2023-06-14T16:58:38;100937.54;;;21.54;45.65
26436;BME280;15351;52.408;16.826;2023-06-14T17:01:05;100937.64;;;21.50;46.08
26436;BME280;15351;52.408;16.826;2023-06-14T17:10:29;100955.69;;;21.40;46.57
26436;BME280;15351;52.408;16.826;2023-06-14T17:12:55;100960.95;;;21.36;46.67
26436;BME280;15351;52.408;16.826;2023-06-14T17:15:24;100966.96;;;21.32;46.93
26436;BME280;15351;52.408;16.826;2023-06-14T17:17:50;100968.08;;;21.31;46.99
26436;BME280;15351;52.408;16.826;2023-06-14T17:20:29;100969.50;;;21.29;46.87
26436;BME280;15351;52.408;16.826;2023-06-14T17:23:17;100973.46;;;21.24;46.70
26436;BME280;15351;52.408;16.826;2023-06-14T17:26:07;100968.76;;;21.18;46.82
26436;BME280;15351;52.408;16.826;2023-06-14T17:28:44;100966.33;;;21.13;47.05
26436;BME280;15351;52.408;16.826;2023-06-14T17:31:33;100968.73;;;21.09;47.32
26436;BME280;15351;52.408;16.826;2023-06-14T17:34:24;100960.45;;;21.07;47.49
26436;BME280;15351;52.408;16.826;2023-06-14T17:37:01;100957.85;;;21.05;47.89
26436;BME280;15351;52.408;16.826;2023-06-14T17:39:52;100959.50;;;21.01;48.12
26436;BME280;15351;52.408;16.826;2023-06-14T17:42:37;100953.77;;;20.97;48.50
26436;BME280;15351;52.408;16.826;2023-06-14T17:45:04;100956.08;;;20.94;48.69
26436;BME280;15351;52.408;16.826;2023-06-14T17:47:31;100953.67;;;20.91;48.94
26436;BME280;15351;52.408;16.826;2023-06-14T17:50:07;100949.31;;;20.88;48.97
26436;BME280;15351;52.408;16.826;2023-06-14T17:52:39;100950.50;;;20.84;48.88
26436;BME280;15351;52.408;16.826;2023-06-14T17:55:10;100947.79;;;20.80;48.73
26436;BME280;15351;52.408;16.826;2023-06-14T17:57:36;100943.61;;;20.74;48.94
26436;BME280;15351;52.408;16.826;2023-06-14T18:01:18;100948.49;;;20.71;49.36
26436;BME280;15351;52.408;16.826;2023-06-14T18:08:17;100954.86;;;20.63;51.38
26436;BME280;15351;52.408;16.826;2023-06-14T18:11:44;100954.83;;;20.58;51.88
26436;BME280;15351;52.408;16.826;2023-06-14T18:14:49;100957.48;;;20.53;52.08
26436;BME280;15351;52.408;16.826;2023-06-14T18:17:24;100953.03;;;20.49;52.56
26436;BME280;15351;52.408;16.826;2023-06-14T18:19:58;100961.55;;;20.51;52.46
26436;BME280;15351;52.408;16.826;2023-06-14T18:22:47;100961.51;;;20.46;52.43
26436;BME280;15351;52.408;16.826;2023-06-14T18:25:47;100971.39;;;20.50;52.31
26436;BME280;15351;52.408;16.826;2023-06-14T18:28:18;100971.90;;;20.47;52.14
26436;BME280;15351;52.408;16.826;2023-06-14T18:30:53;100968.73;;;20.46;52.06
26436;BME280;15351;52.408;16.826;2023-06-14T18:33:45;100971.73;;;20.46;52.11
26436;BME280;15351;52.408;16.826;2023-06-14T18:37:16;100966.80;;;20.41;52.27
26436;BME280;15351;52.408;16.826;2023-06-14T18:40:08;100970.03;;;20.43;52.13
26436;BME280;15351;52.408;16.826;2023-06-14T18:43:36;100966.75;;;20.40;52.22
26436;BME280;15351;52.408;16.826;2023-06-14T18:49:48;100968.17;;;20.31;52.52
26436;BME280;15351;52.408;16.826;2023-06-14T18:52:54;100967.92;;;20.28;52.71
26436;BME280;15351;52.408;16.826;2023-06-14T18:59:14;100968.83;;;20.22;52.92
26436;BME280;15351;52.408;16.826;2023-06-14T19:02:39;100972.39;;;20.19;53.32
26436;BME280;15351;52.408;16.826;2023-06-14T19:08:37;100963.59;;;20.11;53.72
26436;BME280;15351;52.408;16.826;2023-06-14T19:14:53;100965.56;;;20.02;54.08
26436;BME280;15351;52.408;16.826;2023-06-14T19:27:46;100979.02;;;19.96;54.76
26436;BME280;15351;52.408;16.826;2023-06-14T19:30:24;100978.91;;;19.94;54.77
26436;BME280;15351;52.408;16.826;2023-06-14T19:33:03;100979.83;;;19.94;54.79
26436;BME280;15351;52.408;16.826;2023-06-14T19:36:36;100977.71;;;19.91;54.90
26436;BME280;15351;52.408;16.826;2023-06-14T19:39:33;100982.83;;;19.88;55.00
26436;BME280;15351;52.408;16.826;2023-06-14T19:42:31;100983.50;;;19.86;55.11
26436;BME280;15351;52.408;16.826;2023-06-14T19:45:11;100987.34;;;19.85;55.11
26436;BME280;15351;52.408;16.826;2023-06-14T19:48:02;100992.95;;;19.84;54.96
26436;BME280;15351;52.408;16.826;2023-06-14T19:51:44;100987.85;;;19.79;55.18
26436;BME280;15351;52.408;16.826;2023-06-14T19:54:35;100990.52;;;19.78;55.35
26436;BME280;15351;52.408;16.826;2023-06-14T19:58:16;100981.27;;;19.68;55.50
26436;BME280;15351;52.408;16.826;2023-06-14T20:01:24;100995.27;;;19.73;55.75
26436;BME280;15351;52.408;16.826;2023-06-14T20:13:26;101010.94;;;19.62;55.61
26436;BME280;15351;52.408;16.826;2023-06-14T20:20:18;101013.02;;;19.60;55.89
26436;BME280;15351;52.408;16.826;2023-06-14T20:23:35;101013.98;;;19.61;55.69
26436;BME280;15351;52.408;16.826;2023-06-14T20:29:49;101015.93;;;19.55;56.22
26436;BME280;15351;52.408;16.826;2023-06-14T20:32:50;101018.71;;;19.55;56.05
26436;BME280;15351;52.408;16.826;2023-06-14T20:36:14;101018.52;;;19.51;56.63
26436;BME280;15351;52.408;16.826;2023-06-14T20:39:14;101019.63;;;19.48;57.04
26436;BME280;15351;52.408;16.826;2023-06-14T20:42:49;101022.11;;;19.44;57.81
26436;BME280;15351;52.408;16.826;2023-06-14T20:45:51;101022.59;;;19.42;58.10
26436;BME280;15351;52.408;16.826;2023-06-14T20:48:22;101019.84;;;19.42;58.52
26436;BME280;15351;52.408;16.826;2023-06-14T20:51:27;101022.15;;;19.45;58.17
26436;BME280;15351;52.408;16.826;2023-06-14T21:09:00;101025.45;;;19.40;57.70
26436;BME280;15351;52.408;16.826;2023-06-14T21:13:14;101021.58;;;19.35;57.89
26436;BME280;15351;52.408;16.826;2023-06-14T21:16:22;101018.63;;;19.30;58.17
26436;BME280;15351;52.408;16.826;2023-06-14T21:20:12;101015.02;;;19.28;58.60
26436;BME280;15351;52.408;16.826;2023-06-14T21:23:23;101013.55;;;19.25;58.63
26436;BME280;15351;52.408;16.826;2023-06-14T21:26:27;101006.48;;;19.20;58.70
26436;BME280;15351;52.408;16.826;2023-06-14T21:30:00;101008.03;;;19.22;59.02
26436;BME280;15351;52.408;16.826;2023-06-14T21:33:03;101007.00;;;19.19;58.81
26436;BME280;15351;52.408;16.826;2023-06-14T21:36:35;101013.10;;;19.19;59.17
26436;BME280;15351;52.408;16.826;2023-06-14T21:39:46;101015.00;;;19.19;59.46
26436;BME280;15351;52.408;16.826;2023-06-14T21:42:58;101017.42;;;19.23;59.67
26436;BME280;15351;52.408;16.826;2023-06-14T21:46:32;101015.10;;;19.23;59.93
26436;BME280;15351;52.408;16.826;2023-06-14T21:49:59;101013.05;;;19.21;59.97
26436;BME280;15351;52.408;16.826;2023-06-14T21:52:52;101009.86;;;19.20;60.07
26436;BME280;15351;52.408;16.826;2023-06-14T21:56:19;101004.10;;;19.18;60.28
26436;BME280;15351;52.408;16.826;2023-06-14T21:59:24;100998.34;;;19.17;60.76
26436;BME280;15351;52.408;16.826;2023-06-14T22:02:16;100994.55;;;19.18;61.22
26436;BME280;15351;52.408;16.826;2023-06-14T22:05:44;100992.48;;;19.19;62.13
26436;BME280;15351;52.408;16.826;2023-06-14T22:09:18;100984.36;;;19.17;62.60
26436;BME280;15351;52.408;16.826;2023-06-14T22:12:21;100980.64;;;19.14;62.75
26436;BME280;15351;52.408;16.826;2023-06-14T22:22:43;100983.51;;;19.13;63.42
26436;BME280;15351;52.408;16.826;2023-06-14T22:25:51;100982.92;;;19.12;63.48
26436;BME280;15351;52.408;16.826;2023-06-14T22:28:40;100979.14;;;19.09;63.90
26436;BME280;15351;52.408;16.826;2023-06-14T22:35:59;100969.52;;;19.07;64.00
26436;BME280;15351;52.408;16.826;2023-06-14T22:39:16;100969.13;;;18.99;64.21